Time;durP1;ratioP1;P1;durP2;ratioP2;P2;SDS_P1;SDS_P2;PMS_P1;PMS_P2;Temp;Humidity;BMP_temperature;BMP_pressure;BME280_temperature;BME280_humidity;BME280_pressure;Samples;Min_cycle;Max_cycle;Signal;HPM_P1;HPM_P2
2023/06/27 00:02:14;;;;;;;1.85;1.35;;;;;;;;;;6199654;28;20054;-82
2023/06/27 00:05:19;;;;;;;2.53;1.33;;;;;;;;;;6215817;28;20139;-81
2023/06/27 00:08:20;;;;;;;2.80;1.20;;;;;;;;;;6198972;28;20050;-80
2023/06/27 00:11:22;;;;;;;3.20;1.30;;;;;;;;;;6203700;28;20038;-81
2023/06/27 00:14:25;;;;;;;3.00;1.30;;;;;;;;;;6182933;28;20037;-81
2023/06/27 00:17:26;;;;;;;1.95;1.30;;;;;;;;;;6179236;28;20045;-81
2023/06/27 00:20:28;;;;;;;2.80;1.50;;;;;;;;;;6206439;28;20390;-81
2023/06/27 00:23:33;;;;;;;3.13;2.10;;;;;;;;;;6185213;28;20727;-82
2023/06/27 00:26:35;;;;;;;4.38;1.35;;;;;;;;;;6183599;28;20049;-81
2023/06/27 00:29:36;;;;;;;2.35;1.63;;;;;;;;;;6191027;28;20522;-81
2023/06/27 00:32:38;;;;;;;2.85;1.27;;;;;;;;;;6183154;28;20046;-84
2023/06/27 00:35:40;;;;;;;2.58;1.70;;;;;;;;;;6209837;28;20046;-82
2023/06/27 00:38:43;;;;;;;3.40;1.40;;;;;;;;;;6192510;28;20054;-82
2023/06/27 00:41:44;;;;;;;1.98;1.45;;;;;;;;;;6194510;28;20057;-81
2023/06/27 00:44:46;;;;;;;4.35;1.30;;;;;;;;;;6210530;28;20042;-81
2023/06/27 00:47:49;;;;;;;8.95;1.80;;;;;;;;;;6196922;28;20536;-81
2023/06/27 00:50:55;;;;;;;3.22;1.65;;;;;;;;;;6206636;28;20057;-84
2023/06/27 00:54:00;;;;;;;4.13;1.50;;;;;;;;;;6185692;28;20042;-82
2023/06/27 00:57:02;;;;;;;1.77;1.20;;;;;;;;;;6190302;28;20057;-82
2023/06/27 01:00:05;;;;;;;1.80;1.40;;;;;;;;;;6189195;28;20050;-82
2023/06/27 01:03:11;;;;;;;3.28;1.50;;;;;;;;;;6208465;28;20457;-83
2023/06/27 01:06:22;;;;;;;2.55;1.20;;;;;;;;;;6153300;28;20461;-82
2023/06/27 01:09:39;;;;;;;2.80;1.40;;;;;;;;;;6204939;28;20045;-82
2023/06/27 01:12:41;;;;;;;2.95;1.40;;;;;;;;;;6189934;28;20287;-82
2023/06/27 01:15:45;;;;;;;5.88;1.70;;;;;;;;;;6190840;28;20045;-81
2023/06/27 01:18:47;;;;;;;2.70;1.35;;;;;;;;;;6191047;28;20043;-82
2023/06/27 01:22:00;;;;;;;3.72;1.42;;;;;;;;;;6182343;28;20042;-83
2023/06/27 01:25:07;;;;;;;2.45;1.20;;;;;;;;;;6210691;28;20468;-83
2023/06/27 01:28:14;;;;;;;2.13;1.60;;;;;;;;;;6197873;28;20038;-83
2023/06/27 01:31:38;;;;;;;2.80;1.40;;;;;;;;;;6208842;28;20180;-82
2023/06/27 01:34:52;;;;;;;3.92;1.73;;;;;;;;;;6216131;28;20464;-82
2023/06/27 01:37:58;;;;;;;3.72;1.50;;;;;;;;;;6191888;28;20050;-82
2023/06/27 01:41:01;;;;;;;2.95;1.70;;;;;;;;;;6193053;28;20522;-83
2023/06/27 01:44:04;;;;;;;;;;;;;;;;;;6213858;28;20649;-82
2023/06/27 01:47:08;;;;;;;3.72;1.80;;;;;;;;;;6209387;28;19921;-82
2023/06/27 01:50:12;;;;;;;3.65;1.55;;;;;;;;;;6200179;28;20185;-82
2023/06/27 01:53:14;;;;;;;4.75;1.48;;;;;;;;;;6212220;28;20045;-82
2023/06/27 01:56:17;;;;;;;2.90;1.38;;;;;;;;;;6193864;28;20046;-82
2023/06/27 01:59:20;;;;;;;4.90;1.50;;;;;;;;;;6203597;28;20050;-83
2023/06/27 02:02:22;;;;;;;3.42;1.60;;;;;;;;;;6183269;28;20050;-82
2023/06/27 02:05:24;;;;;;;2.35;1.48;;;;;;;;;;6195148;28;20595;-83
2023/06/27 02:08:26;;;;;;;2.92;1.63;;;;;;;;;;6196454;28;20047;-81
2023/06/27 02:11:27;;;;;;;4.78;1.50;;;;;;;;;;6208769;28;20053;-82
2023/06/27 02:14:32;;;;;;;3.47;1.70;;;;;;;;;;6206982;28;20050;-82
2023/06/27 02:17:33;;;;;;;2.72;1.50;;;;;;;;;;6213081;28;20141;-82
2023/06/27 02:20:36;;;;;;;2.17;1.40;;;;;;;;;;6176818;28;20038;-82
2023/06/27 02:23:38;;;;;;;4.00;1.58;;;;;;;;;;6194873;28;20074;-82
2023/06/27 02:26:40;;;;;;;3.95;1.63;;;;;;;;;;6203770;28;20034;-83
2023/06/27 02:29:44;;;;;;;4.82;1.92;;;;;;;;;;6182731;28;20591;-83
2023/06/27 02:32:45;;;;;;;3.45;1.70;;;;;;;;;;6195921;28;20042;-84
2023/06/27 02:35:47;;;;;;;3.55;1.50;;;;;;;;;;6218574;28;20530;-81
2023/06/27 02:38:54;;;;;;;3.63;1.45;;;;;;;;;;6196441;28;20111;-84
2023/06/27 02:41:56;;;;;;;2.63;1.50;;;;;;;;;;6211937;28;20050;-83
2023/06/27 02:44:58;;;;;;;4.05;1.60;;;;;;;;;;6197473;28;20049;-82
2023/06/27 02:47:59;;;;;;;2.45;1.63;;;;;;;;;;6200682;28;20046;-83
2023/06/27 02:51:01;;;;;;;4.45;1.55;;;;;;;;;;6194453;28;20046;-83
2023/06/27 02:54:03;;;;;;;1.65;1.40;;;;;;;;;;6190234;28;20060;-82
2023/06/27 02:57:06;;;;;;;2.00;1.50;;;;;;;;;;6200537;28;20737;-82
2023/06/27 03:00:10;;;;;;;5.40;1.90;;;;;;;;;;6199010;28;20129;-82
2023/06/27 03:03:12;;;;;;;1.38;1.27;;;;;;;;;;6199306;28;20412;-82
2023/06/27 03:06:15;;;;;;;3.38;1.50;;;;;;;;;;6192690;28;20050;-82
2023/06/27 03:09:20;;;;;;;2.57;1.80;;;;;;;;;;6198891;28;20044;-82
2023/06/27 03:12:21;;;;;;;4.38;1.80;;;;;;;;;;6192132;28;20630;-82
2023/06/27 03:15:23;;;;;;;3.03;1.60;;;;;;;;;;6212218;28;20054;-82
2023/06/27 03:18:26;;;;;;;3.20;1.30;;;;;;;;;;6167029;28;20053;-84
2023/06/27 03:21:27;;;;;;;2.40;1.60;;;;;;;;;;6173491;28;20054;-82
2023/06/27 03:24:29;;;;;;;2.70;1.55;;;;;;;;;;6186701;28;20651;-81
2023/06/27 03:27:31;;;;;;;3.65;1.65;;;;;;;;;;6190427;28;20042;-82
2023/06/27 03:30:33;;;;;;;3.47;1.50;;;;;;;;;;6189649;28;20504;-83
2023/06/27 03:33:35;;;;;;;3.17;1.73;;;;;;;;;;6189148;28;20695;-82
2023/06/27 03:36:37;;;;;;;6.00;1.60;;;;;;;;;;6193138;28;20061;-83
2023/06/27 03:39:40;;;;;;;3.63;1.45;;;;;;;;;;6206277;28;20500;-82
2023/06/27 03:42:42;;;;;;;2.27;1.67;;;;;;;;;;6178452;28;20041;-82
2023/06/27 03:45:44;;;;;;;2.63;1.85;;;;;;;;;;6204908;28;20469;-82
2023/06/27 03:48:47;;;;;;;3.30;2.05;;;;;;;;;;6190773;28;20092;-82
2023/06/27 03:51:50;;;;;;;4.05;2.08;;;;;;;;;;6206034;28;20559;-81
2023/06/27 03:54:52;;;;;;;6.35;1.70;;;;;;;;;;6203529;28;20088;-82
2023/06/27 03:57:54;;;;;;;2.63;1.70;;;;;;;;;;6190898;28;20504;-83
2023/06/27 04:00:56;;;;;;;3.95;1.92;;;;;;;;;;6186168;28;20053;-83
2023/06/27 04:03:57;;;;;;;2.45;1.70;;;;;;;;;;6188826;28;20053;-81
2023/06/27 04:06:59;;;;;;;4.28;2.10;;;;;;;;;;6206307;28;20057;-82
2023/06/27 04:10:01;;;;;;;2.00;1.70;;;;;;;;;;6172836;28;20046;-82
2023/06/27 04:13:03;;;;;;;2.58;1.50;;;;;;;;;;6205491;28;20044;-84
2023/06/27 04:16:06;;;;;;;3.90;1.70;;;;;;;;;;6202221;28;20050;-84
2023/06/27 04:19:08;;;;;;;3.55;1.90;;;;;;;;;;6197114;28;20050;-82
2023/06/27 04:22:10;;;;;;;4.47;2.25;;;;;;;;;;6187641;28;20130;-82
2023/06/27 04:25:13;;;;;;;3.45;1.90;;;;;;;;;;6180473;28;20061;-81
2023/06/27 04:28:14;;;;;;;3.80;1.92;;;;;;;;;;6174681;28;20058;-82
2023/06/27 04:31:16;;;;;;;3.25;1.70;;;;;;;;;;6201788;28;20064;-80
2023/06/27 04:34:18;;;;;;;4.47;1.70;;;;;;;;;;6193060;28;20089;-81
2023/06/27 04:37:23;;;;;;;2.88;1.95;;;;;;;;;;6205884;28;20056;-82
2023/06/27 04:40:25;;;;;;;4.10;1.95;;;;;;;;;;6185836;28;20046;-80
2023/06/27 04:43:27;;;;;;;2.42;1.77;;;;;;;;;;6188386;28;20134;-81
2023/06/27 04:46:29;;;;;;;3.23;2.10;;;;;;;;;;6184264;28;20111;-80
2023/06/27 04:49:30;;;;;;;3.83;1.80;;;;;;;;;;6187163;28;20535;-81
2023/06/27 04:52:32;;;;;;;3.15;1.77;;;;;;;;;;6190686;28;20050;-83
2023/06/27 04:55:34;;;;;;;5.45;1.83;;;;;;;;;;6206854;28;20077;-82
2023/06/27 04:58:36;;;;;;;2.40;1.70;;;;;;;;;;6211415;28;20639;-78
2023/06/27 05:01:38;;;;;;;3.65;2.05;;;;;;;;;;6203374;28;20042;-79
2023/06/27 05:04:40;;;;;;;2.85;1.73;;;;;;;;;;6202603;28;20046;-80
2023/06/27 05:07:42;;;;;;;3.05;1.75;;;;;;;;;;6192332;28;20057;-81
2023/06/27 05:10:44;;;;;;;2.40;1.50;;;;;;;;;;6184162;28;20046;-81
2023/06/27 05:13:50;;;;;;;4.20;2.15;;;;;;;;;;6175513;28;20056;-82
2023/06/27 05:16:52;;;;;;;2.95;2.10;;;;;;;;;;6201817;28;20042;-81
2023/06/27 05:19:53;;;;;;;3.65;1.77;;;;;;;;;;6193657;28;20049;-82
2023/06/27 05:22:55;;;;;;;4.63;1.88;;;;;;;;;;6189165;28;20463;-81
2023/06/27 05:25:57;;;;;;;3.30;1.80;;;;;;;;;;6201268;28;20099;-79
2023/06/27 05:28:59;;;;;;;4.18;1.83;;;;;;;;;;6198915;28;20061;-79
2023/06/27 05:32:01;;;;;;;2.80;1.80;;;;;;;;;;6186423;28;20048;-79
2023/06/27 05:35:03;;;;;;;4.80;1.70;;;;;;;;;;6195381;28;20042;-79
2023/06/27 05:38:06;;;;;;;3.75;1.67;;;;;;;;;;6207769;28;20518;-79
2023/06/27 05:41:07;;;;;;;6.15;2.00;;;;;;;;;;6196637;28;20076;-79
2023/06/27 05:44:09;;;;;;;5.25;2.10;;;;;;;;;;6191072;28;20046;-79
2023/06/27 05:47:12;;;;;;;6.55;1.90;;;;;;;;;;6204133;28;20050;-79
2023/06/27 05:50:13;;;;;;;6.45;2.40;;;;;;;;;;6204728;28;20046;-79
2023/06/27 05:53:15;;;;;;;17.63;2.80;;;;;;;;;;6198238;28;20041;-80
2023/06/27 05:56:17;;;;;;;13.73;2.75;;;;;;;;;;6200479;28;20124;-79
2023/06/27 05:59:19;;;;;;;12.77;3.00;;;;;;;;;;6198158;28;20061;-79
2023/06/27 06:02:21;;;;;;;9.93;2.37;;;;;;;;;;6198224;28;20045;-79
2023/06/27 06:05:23;;;;;;;6.68;2.00;;;;;;;;;;6170012;28;20046;-78
2023/06/27 06:08:25;;;;;;;8.88;2.45;;;;;;;;;;6183245;28;20046;-78
2023/06/27 06:11:27;;;;;;;8.55;2.47;;;;;;;;;;6187618;28;20047;-79
2023/06/27 06:14:28;;;;;;;9.32;2.63;;;;;;;;;;6200399;28;20500;-78
2023/06/27 06:17:30;;;;;;;12.00;2.63;;;;;;;;;;6185991;28;20066;-79
2023/06/27 06:20:32;;;;;;;7.35;2.50;;;;;;;;;;6211669;28;20117;-82
2023/06/27 06:23:34;;;;;;;10.10;2.55;;;;;;;;;;6188775;28;20054;-81
2023/06/27 06:26:36;;;;;;;5.80;2.22;;;;;;;;;;6188550;28;20089;-81
2023/06/27 06:29:38;;;;;;;9.07;2.33;;;;;;;;;;6205361;28;20046;-81
2023/06/27 06:32:40;;;;;;;7.10;2.15;;;;;;;;;;6206480;28;20042;-82
2023/06/27 06:35:41;;;;;;;5.57;2.00;;;;;;;;;;6207527;28;20065;-80
2023/06/27 06:38:43;;;;;;;8.48;2.20;;;;;;;;;;6190431;28;20053;-81
2023/06/27 06:41:45;;;;;;;7.88;2.40;;;;;;;;;;6207944;28;20074;-84
2023/06/27 06:44:48;;;;;;;6.60;2.25;;;;;;;;;;6208905;28;20056;-81
2023/06/27 06:47:51;;;;;;;7.00;2.08;;;;;;;;;;6171301;28;20124;-81
2023/06/27 06:50:53;;;;;;;;;;;;;;;;;;6193081;28;20037;-80
2023/06/27 06:53:55;;;;;;;5.85;2.08;;;;;;;;;;6185615;28;19921;-81
2023/06/27 06:56:57;;;;;;;8.63;2.38;;;;;;;;;;6193969;28;20046;-81
2023/06/27 06:59:58;;;;;;;8.00;2.20;;;;;;;;;;6202056;28;20050;-80
2023/06/27 07:03:00;;;;;;;4.80;2.20;;;;;;;;;;6205022;28;20116;-83
2023/06/27 07:06:02;;;;;;;6.30;1.57;;;;;;;;;;6181965;28;20106;-82
2023/06/27 07:09:04;;;;;;;4.93;2.03;;;;;;;;;;6212414;28;20483;-80
2023/06/27 07:12:06;;;;;;;6.82;2.00;;;;;;;;;;6178246;28;20422;-80
2023/06/27 07:15:09;;;;;;;7.93;2.47;;;;;;;;;;6197031;28;20049;-79
2023/06/27 07:18:11;;;;;;;5.47;2.13;;;;;;;;;;6195375;28;20412;-81
2023/06/27 07:21:12;;;;;;;6.88;2.08;;;;;;;;;;6193414;28;20050;-81
2023/06/27 07:24:14;;;;;;;7.15;2.15;;;;;;;;;;6192587;28;20073;-82
2023/06/27 07:27:16;;;;;;;5.10;2.17;;;;;;;;;;6209700;28;20413;-82
2023/06/27 07:30:18;;;;;;;6.82;2.00;;;;;;;;;;6207360;28;20081;-81
2023/06/27 07:33:20;;;;;;;5.65;2.40;;;;;;;;;;6212981;28;20412;-81
2023/06/27 07:36:22;;;;;;;5.93;2.10;;;;;;;;;;6199654;28;20131;-81
2023/06/27 07:39:24;;;;;;;2.80;1.60;;;;;;;;;;6207025;28;20064;-81
2023/06/27 07:42:26;;;;;;;5.53;2.08;;;;;;;;;;6212422;28;20057;-81
2023/06/27 07:45:29;;;;;;;8.93;1.90;;;;;;;;;;6205218;28;20046;-80
2023/06/27 07:48:30;;;;;;;;;;;;;;;;;;6180847;28;20049;-82
2023/06/27 07:51:32;;;;;;;6.32;1.85;;;;;;;;;;6214838;28;19921;-80
2023/06/27 07:54:35;;;;;;;4.77;2.13;;;;;;;;;;6198814;28;20137;-83
2023/06/27 07:57:37;;;;;;;5.07;1.70;;;;;;;;;;6198994;28;20049;-83
2023/06/27 08:00:39;;;;;;;2.97;1.57;;;;;;;;;;6204560;28;20042;-82
2023/06/27 08:03:41;;;;;;;6.68;1.98;;;;;;;;;;6207156;28;20461;-82
2023/06/27 08:06:43;;;;;;;5.37;1.90;;;;;;;;;;6215835;28;20057;-82
2023/06/27 08:09:45;;;;;;;4.50;1.70;;;;;;;;;;6212055;28;20053;-82
2023/06/27 08:12:46;;;;;;;3.92;1.83;;;;;;;;;;6211947;28;20048;-82
2023/06/27 08:15:48;;;;;;;3.20;1.40;;;;;;;;;;6202427;28;20456;-84
2023/06/27 08:18:50;;;;;;;2.80;1.27;;;;;;;;;;6198570;28;20058;-84
2023/06/27 08:21:51;;;;;;;3.15;1.10;;;;;;;;;;6214409;28;20066;-81
2023/06/27 08:24:53;;;;;;;4.07;1.40;;;;;;;;;;6183032;28;20046;-82
2023/06/27 08:27:55;;;;;;;4.75;1.33;;;;;;;;;;6213041;28;20041;-83
2023/06/27 08:30:57;;;;;;;2.55;1.30;;;;;;;;;;6195059;28;20054;-82
2023/06/27 08:33:59;;;;;;;2.38;1.52;;;;;;;;;;6213786;28;20056;-81
2023/06/27 08:37:00;;;;;;;4.50;1.52;;;;;;;;;;6210855;28;20050;-82
2023/06/27 08:40:03;;;;;;;5.75;1.50;;;;;;;;;;6178258;28;20053;-82
2023/06/27 08:43:06;;;;;;;3.40;1.15;;;;;;;;;;6216689;28;20061;-82
2023/06/27 08:46:08;;;;;;;2.97;1.30;;;;;;;;;;6197741;28;20056;-82
2023/06/27 08:49:22;;;;;;;2.05;1.02;;;;;;;;;;6196575;28;20779;-83
2023/06/27 08:52:25;;;;;;;4.53;1.55;;;;;;;;;;6188881;28;20056;-81
2023/06/27 08:55:41;;;;;;;4.32;1.25;;;;;;;;;;6185861;28;20052;-81
2023/06/27 08:58:59;;;;;;;2.72;1.10;;;;;;;;;;6219890;28;20050;-81
2023/06/27 09:02:04;;;;;;;3.78;1.00;;;;;;;;;;6196545;28;20053;-81
2023/06/27 09:05:06;;;;;;;3.85;1.33;;;;;;;;;;6179036;28;20050;-80
2023/06/27 09:08:08;;;;;;;4.47;1.20;;;;;;;;;;6207357;28;20046;-83
2023/06/27 09:11:09;;;;;;;3.38;1.30;;;;;;;;;;6210225;28;20046;-82
2023/06/27 09:14:12;;;;;;;1.42;0.80;;;;;;;;;;6192901;28;20061;-82
2023/06/27 09:17:14;;;;;;;4.88;1.00;;;;;;;;;;6202753;28;20053;-82
2023/06/27 09:20:19;;;;;;;3.50;1.20;;;;;;;;;;6213893;28;20041;-82
2023/06/27 09:23:21;;;;;;;2.53;1.10;;;;;;;;;;6205092;28;20057;-82
2023/06/27 09:26:27;;;;;;;3.83;1.30;;;;;;;;;;6206912;28;20068;-82
2023/06/27 09:29:32;;;;;;;5.85;1.40;;;;;;;;;;6194454;28;20045;-82
2023/06/27 09:32:35;;;;;;;3.08;1.30;;;;;;;;;;6190525;28;20042;-82
2023/06/27 09:35:44;;;;;;;3.55;1.65;;;;;;;;;;6203601;28;20057;-82
2023/06/27 09:39:16;;;;;;;2.67;1.10;;;;;;;;;;6206085;28;20039;-83
2023/06/27 09:42:18;;;;;;;3.53;1.25;;;;;;;;;;6214153;28;20046;-83
2023/06/27 09:45:22;;;;;;;4.13;1.20;;;;;;;;;;6210395;28;20157;-85
2023/06/27 09:48:24;;;;;;;4.38;1.20;;;;;;;;;;6202245;28;20698;-83
2023/06/27 09:51:28;;;;;;;5.43;1.10;;;;;;;;;;6216889;28;20038;-83
2023/06/27 09:54:30;;;;;;;2.67;1.17;;;;;;;;;;6220619;28;20436;-83
2023/06/27 09:57:31;;;;;;;3.30;1.10;;;;;;;;;;6218090;28;20053;-85
2023/06/27 10:00:33;;;;;;;2.65;1.20;;;;;;;;;;6211128;28;20452;-83
2023/06/27 10:03:36;;;;;;;1.77;1.07;;;;;;;;;;6209483;28;20057;-83
2023/06/27 10:06:38;;;;;;;1.60;0.90;;;;;;;;;;6222249;28;20045;-84
2023/06/27 10:09:40;;;;;;;4.88;1.85;;;;;;;;;;6221391;28;20878;-84
2023/06/27 10:12:43;;;;;;;4.22;1.23;;;;;;;;;;6220130;28;20046;-85
2023/06/27 10:15:45;;;;;;;2.08;1.00;;;;;;;;;;6222849;28;20044;-84
2023/06/27 10:18:50;;;;;;;3.58;1.13;;;;;;;;;;6206026;28;20038;-85
2023/06/27 10:21:52;;;;;;;4.00;1.20;;;;;;;;;;6222160;28;20058;-85
2023/06/27 10:24:57;;;;;;;2.85;1.27;;;;;;;;;;6221707;28;20045;-85
2023/06/27 10:28:06;;;;;;;2.03;1.00;;;;;;;;;;6209356;28;20053;-84
2023/06/27 10:31:08;;;;;;;3.45;1.23;;;;;;;;;;6217431;28;20050;-84
2023/06/27 10:34:37;;;;;;;4.03;1.40;;;;;;;;;;6205832;28;20049;-86
2023/06/27 10:37:42;;;;;;;3.22;1.20;;;;;;;;;;6202529;28;20042;-84
2023/06/27 10:41:06;;;;;;;4.72;1.25;;;;;;;;;;6224790;28;20124;-84
2023/06/27 10:44:12;;;;;;;3.90;1.30;;;;;;;;;;6202030;28;20515;-84
2023/06/27 10:47:20;;;;;;;5.22;1.20;;;;;;;;;;6220183;28;20053;-85
2023/06/27 10:50:23;;;;;;;1.42;1.02;;;;;;;;;;6201382;28;20041;-85
2023/06/27 10:53:24;;;;;;;2.50;1.30;;;;;;;;;;6201233;28;20085;-84
2023/06/27 10:56:29;;;;;;;3.45;1.20;;;;;;;;;;6219643;28;20046;-84
2023/06/27 10:59:33;;;;;;;3.95;1.30;;;;;;;;;;6220305;28;20046;-84
2023/06/27 11:02:35;;;;;;;3.90;1.38;;;;;;;;;;6219460;28;20057;-85
2023/06/27 11:05:49;;;;;;;2.72;1.10;;;;;;;;;;6222002;28;20053;-85
2023/06/27 11:08:57;;;;;;;2.17;1.27;;;;;;;;;;6207558;28;20073;-84
2023/06/27 11:12:10;;;;;;;4.25;1.15;;;;;;;;;;6222777;28;20065;-85
2023/06/27 11:15:11;;;;;;;3.53;1.10;;;;;;;;;;6215636;28;20061;-83
2023/06/27 11:18:15;;;;;;;2.40;1.02;;;;;;;;;;6222157;28;20061;-83
2023/06/27 11:21:17;;;;;;;2.40;1.23;;;;;;;;;;6199839;28;20069;-85
2023/06/27 11:24:19;;;;;;;2.50;1.10;;;;;;;;;;6217821;28;20054;-84
2023/06/27 11:27:28;;;;;;;;;;;;;;;;;;6218117;28;20106;-85
2023/06/27 11:30:30;;;;;;;1.17;1.00;;;;;;;;;;6218322;28;19932;-84
2023/06/27 11:33:32;;;;;;;3.33;1.20;;;;;;;;;;6222349;28;20042;-85
2023/06/27 11:36:38;;;;;;;4.28;1.23;;;;;;;;;;6207035;28;20050;-84
2023/06/27 11:39:51;;;;;;;2.67;1.40;;;;;;;;;;6213678;28;20042;-84
2023/06/27 11:43:04;;;;;;;4.38;1.20;;;;;;;;;;6220795;28;20057;-84
2023/06/27 11:46:06;;;;;;;1.98;1.30;;;;;;;;;;6207683;28;20046;-84
2023/06/27 11:49:08;;;;;;;2.87;1.20;;;;;;;;;;6215188;28;20042;-85
2023/06/27 11:52:09;;;;;;;4.10;1.30;;;;;;;;;;6208647;28;20050;-84
2023/06/27 11:55:11;;;;;;;2.80;1.10;;;;;;;;;;6224038;28;20065;-85
2023/06/27 11:58:13;;;;;;;3.67;1.30;;;;;;;;;;6199265;28;20046;-85
2023/06/27 12:01:16;;;;;;;3.13;1.30;;;;;;;;;;6214632;28;20068;-84
2023/06/27 12:04:18;;;;;;;2.45;1.25;;;;;;;;;;6207847;28;20042;-85
2023/06/27 12:07:21;;;;;;;2.85;1.25;;;;;;;;;;6219663;28;20050;-85
2023/06/27 12:10:24;;;;;;;2.45;1.20;;;;;;;;;;6191322;28;20038;-84
2023/06/27 12:13:44;;;;;;;;;;;;;;;;;;6224092;28;20132;-83
2023/06/27 12:16:45;;;;;;;2.88;1.35;;;;;;;;;;6228301;28;19999;-84
2023/06/27 12:19:49;;;;;;;1.80;1.23;;;;;;;;;;6226072;28;20073;-83
2023/06/27 12:22:51;;;;;;;4.95;1.58;;;;;;;;;;6205300;28;20038;-84
2023/06/27 12:25:52;;;;;;;5.72;1.50;;;;;;;;;;6217011;28;20054;-85
2023/06/27 12:28:58;;;;;;;3.00;1.42;;;;;;;;;;6190223;28;20046;-84
2023/06/27 12:32:00;;;;;;;2.67;1.58;;;;;;;;;;6213883;28;20046;-85
2023/06/27 12:35:02;;;;;;;2.60;1.47;;;;;;;;;;6190335;28;20050;-85
2023/06/27 12:38:05;;;;;;;2.65;1.42;;;;;;;;;;6220507;28;20042;-84
2023/06/27 12:41:06;;;;;;;4.28;1.60;;;;;;;;;;6218216;28;20054;-84
2023/06/27 12:44:08;;;;;;;3.87;1.60;;;;;;;;;;6210785;28;20038;-84
2023/06/27 12:47:10;;;;;;;3.13;1.40;;;;;;;;;;6214925;28;20105;-84
2023/06/27 12:50:17;;;;;;;3.13;1.30;;;;;;;;;;6217197;28;20106;-84
2023/06/27 12:53:19;;;;;;;4.57;1.58;;;;;;;;;;6217376;28;20046;-82
2023/06/27 12:56:20;;;;;;;2.67;1.50;;;;;;;;;;6198951;28;20054;-83
2023/06/27 12:59:26;;;;;;;5.50;1.70;;;;;;;;;;6219196;28;20046;-82
2023/06/27 13:02:28;;;;;;;4.43;1.80;;;;;;;;;;6195944;28;20049;-82
2023/06/27 13:05:31;;;;;;;3.38;1.63;;;;;;;;;;6199058;28;20116;-82
2023/06/27 13:08:32;;;;;;;3.38;1.50;;;;;;;;;;6205578;28;20046;-83
2023/06/27 13:11:34;;;;;;;4.17;1.70;;;;;;;;;;6207480;28;20045;-82
2023/06/27 13:14:36;;;;;;;5.85;1.60;;;;;;;;;;6200016;28;20050;-82
2023/06/27 13:17:40;;;;;;;5.20;1.50;;;;;;;;;;6201584;28;20042;-82
2023/06/27 13:20:43;;;;;;;2.25;1.40;;;;;;;;;;6216443;28;20047;-81
2023/06/27 13:23:47;;;;;;;3.63;1.52;;;;;;;;;;6220088;28;20045;-82
2023/06/27 13:26:49;;;;;;;2.92;1.60;;;;;;;;;;6194330;28;20132;-81
2023/06/27 13:29:52;;;;;;;3.63;1.40;;;;;;;;;;6189838;28;20162;-80
2023/06/27 13:32:54;;;;;;;;;;;;;;;;;;6213831;28;20049;-82
2023/06/27 13:35:55;;;;;;;3.80;1.70;;;;;;;;;;6202598;28;19930;-81
2023/06/27 13:38:59;;;;;;;2.67;1.40;;;;;;;;;;6186316;28;20052;-81
2023/06/27 13:42:01;;;;;;;2.92;1.30;;;;;;;;;;6202293;28;20311;-81
2023/06/27 13:45:03;;;;;;;3.15;1.38;;;;;;;;;;6211893;28;20070;-81
2023/06/27 13:48:05;;;;;;;2.58;1.67;;;;;;;;;;6212712;28;20076;-82
2023/06/27 13:51:07;;;;;;;3.85;1.58;;;;;;;;;;6212409;28;20073;-81
2023/06/27 13:54:09;;;;;;;3.65;1.40;;;;;;;;;;6215631;28;20050;-82
2023/06/27 13:57:10;;;;;;;2.38;1.20;;;;;;;;;;6200499;28;20049;-83
2023/06/27 14:00:12;;;;;;;2.88;1.40;;;;;;;;;;6206418;28;20057;-82
2023/06/27 14:03:14;;;;;;;2.72;1.17;;;;;;;;;;6192901;28;20141;-81
2023/06/27 14:06:16;;;;;;;3.30;1.27;;;;;;;;;;6209661;28;20104;-81
2023/06/27 14:09:21;;;;;;;3.22;1.35;;;;;;;;;;6215107;28;20068;-82
2023/06/27 14:12:23;;;;;;;3.95;1.13;;;;;;;;;;6215224;28;20042;-81
2023/06/27 14:15:25;;;;;;;3.40;1.30;;;;;;;;;;6221283;28;20412;-81
2023/06/27 14:18:27;;;;;;;5.63;1.73;;;;;;;;;;6220795;28;20048;-81
2023/06/27 14:21:28;;;;;;;4.00;1.20;;;;;;;;;;6222128;28;20068;-81
2023/06/27 14:24:30;;;;;;;2.05;1.30;;;;;;;;;;6201908;28;20064;-81
2023/06/27 14:27:33;;;;;;;2.28;1.20;;;;;;;;;;6204263;28;20252;-81
2023/06/27 14:30:35;;;;;;;2.35;1.30;;;;;;;;;;6182670;28;20057;-81
2023/06/27 14:33:37;;;;;;;3.72;1.42;;;;;;;;;;6216773;28;20053;-81
2023/06/27 14:36:38;;;;;;;2.97;1.30;;;;;;;;;;6210532;28;20054;-81
2023/06/27 14:39:41;;;;;;;3.70;1.15;;;;;;;;;;6224037;28;20050;-81
2023/06/27 14:42:43;;;;;;;3.45;1.38;;;;;;;;;;6222593;28;20038;-81
2023/06/27 14:45:46;;;;;;;5.82;1.40;;;;;;;;;;6201259;28;20039;-81
2023/06/27 14:48:50;;;;;;;3.65;1.38;;;;;;;;;;6218453;28;20049;-80
2023/06/27 14:51:52;;;;;;;3.67;1.50;;;;;;;;;;6213532;28;20056;-81
2023/06/27 14:54:54;;;;;;;5.22;1.98;;;;;;;;;;6196726;28;20046;-81
2023/06/27 14:57:56;;;;;;;2.47;1.20;;;;;;;;;;6201601;28;20042;-82
2023/06/27 15:00:58;;;;;;;3.88;1.40;;;;;;;;;;6211599;28;20058;-81
2023/06/27 15:04:00;;;;;;;3.33;1.30;;;;;;;;;;6219445;28;20049;-80
2023/06/27 15:07:01;;;;;;;2.83;1.38;;;;;;;;;;6205416;28;20038;-82
2023/06/27 15:10:04;;;;;;;2.85;1.55;;;;;;;;;;6213185;28;20074;-82
2023/06/27 15:13:06;;;;;;;5.15;1.40;;;;;;;;;;6216905;28;20058;-81
2023/06/27 15:16:08;;;;;;;5.33;1.43;;;;;;;;;;6216473;28;20050;-84
2023/06/27 15:19:10;;;;;;;5.18;1.38;;;;;;;;;;6207954;28;20450;-83
2023/06/27 15:22:12;;;;;;;3.70;1.60;;;;;;;;;;6205118;28;20105;-81
2023/06/27 15:25:15;;;;;;;3.72;1.50;;;;;;;;;;6206591;28;20033;-82
2023/06/27 15:28:17;;;;;;;3.60;1.63;;;;;;;;;;6202202;28;20171;-82
2023/06/27 15:31:18;;;;;;;1.67;1.27;;;;;;;;;;6197750;28;20057;-81
2023/06/27 15:34:20;;;;;;;1.93;1.37;;;;;;;;;;6212878;28;20042;-81
2023/06/27 15:37:22;;;;;;;3.65;1.20;;;;;;;;;;6223816;28;20437;-82
2023/06/27 15:40:24;;;;;;;4.38;1.63;;;;;;;;;;6217973;28;20052;-81
2023/06/27 15:43:26;;;;;;;3.07;1.70;;;;;;;;;;6209415;28;20042;-81
2023/06/27 15:46:27;;;;;;;3.90;1.30;;;;;;;;;;6217372;28;20049;-81
2023/06/27 15:49:29;;;;;;;3.17;1.50;;;;;;;;;;6212118;28;20041;-82
2023/06/27 15:52:31;;;;;;;3.37;1.40;;;;;;;;;;6184232;28;20061;-80
2023/06/27 15:55:32;;;;;;;3.10;1.40;;;;;;;;;;6214568;28;20046;-81
2023/06/27 15:58:37;;;;;;;2.40;1.55;;;;;;;;;;6196842;28;20057;-82
2023/06/27 16:01:39;;;;;;;1.40;1.30;;;;;;;;;;6194585;28;20106;-81
2023/06/27 16:04:41;;;;;;;3.45;1.65;;;;;;;;;;6196892;28;20073;-81
2023/06/27 16:07:43;;;;;;;2.33;1.58;;;;;;;;;;6216351;28;20078;-81
2023/06/27 16:10:45;;;;;;;5.15;1.65;;;;;;;;;;6199747;28;20049;-83
2023/06/27 16:13:46;;;;;;;3.60;1.80;;;;;;;;;;6211829;28;20058;-81
2023/06/27 16:16:48;;;;;;;4.75;1.90;;;;;;;;;;6199076;28;20717;-81
2023/06/27 16:19:50;;;;;;;6.82;1.88;;;;;;;;;;6212295;28;20060;-82
2023/06/27 16:22:52;;;;;;;2.90;1.90;;;;;;;;;;6198014;28;20047;-81
2023/06/27 16:25:53;;;;;;;3.42;2.03;;;;;;;;;;6199976;28;20045;-82
2023/06/27 16:28:55;;;;;;;2.55;1.75;;;;;;;;;;6210277;28;20054;-81
2023/06/27 16:31:57;;;;;;;5.80;2.08;;;;;;;;;;6197844;28;20046;-81
2023/06/27 16:34:59;;;;;;;6.47;2.00;;;;;;;;;;6200180;28;20081;-83
2023/06/27 16:38:03;;;;;;;4.57;1.90;;;;;;;;;;6195593;28;20053;-82
2023/06/27 16:41:05;;;;;;;3.40;1.80;;;;;;;;;;6195253;28;20054;-82
2023/06/27 16:44:08;;;;;;;4.50;1.60;;;;;;;;;;6184157;28;20058;-81
2023/06/27 16:47:12;;;;;;;4.03;1.65;;;;;;;;;;6208784;28;20054;-82
2023/06/27 16:50:13;;;;;;;3.72;1.80;;;;;;;;;;6194201;28;20050;-82
2023/06/27 16:53:15;;;;;;;3.95;1.83;;;;;;;;;;6194241;28;20050;-82
2023/06/27 16:56:17;;;;;;;4.03;1.80;;;;;;;;;;6191176;28;20053;-82
2023/06/27 16:59:18;;;;;;;6.07;2.17;;;;;;;;;;6191154;28;20080;-83
2023/06/27 17:02:20;;;;;;;7.50;2.13;;;;;;;;;;6192723;28;20050;-82
2023/06/27 17:05:22;;;;;;;4.22;1.85;;;;;;;;;;6193417;28;20046;-82
2023/06/27 17:08:24;;;;;;;4.63;1.70;;;;;;;;;;6178350;28;20053;-82
2023/06/27 17:11:26;;;;;;;3.85;1.80;;;;;;;;;;6198372;28;20053;-82
2023/06/27 17:14:28;;;;;;;4.17;2.00;;;;;;;;;;6188293;28;20049;-83
2023/06/27 17:17:29;;;;;;;3.15;1.55;;;;;;;;;;6208990;28;20445;-82
2023/06/27 17:20:31;;;;;;;5.28;1.75;;;;;;;;;;6202926;28;20046;-83
2023/06/27 17:23:33;;;;;;;5.22;2.10;;;;;;;;;;6210068;28;20050;-82
2023/06/27 17:26:34;;;;;;;2.97;1.80;;;;;;;;;;6205219;28;20050;-81
2023/06/27 17:29:36;;;;;;;2.40;1.83;;;;;;;;;;6196514;28;20265;-82
2023/06/27 17:32:37;;;;;;;4.90;2.30;;;;;;;;;;6209818;28;20536;-82
2023/06/27 17:35:39;;;;;;;3.10;1.90;;;;;;;;;;6218731;28;20046;-83
2023/06/27 17:38:42;;;;;;;5.15;2.20;;;;;;;;;;6211906;28;20560;-82
2023/06/27 17:41:44;;;;;;;5.57;2.00;;;;;;;;;;6211420;28;20050;-81
2023/06/27 17:44:47;;;;;;;4.72;2.00;;;;;;;;;;6207616;28;20073;-84
2023/06/27 17:47:49;;;;;;;4.40;1.98;;;;;;;;;;6193694;28;20038;-82
2023/06/27 17:50:51;;;;;;;4.40;2.00;;;;;;;;;;6199313;28;20819;-82
2023/06/27 17:53:52;;;;;;;3.38;1.92;;;;;;;;;;6204952;28;20440;-82
2023/06/27 17:56:54;;;;;;;2.95;1.70;;;;;;;;;;6199738;28;20065;-86
2023/06/27 17:59:56;;;;;;;4.45;1.92;;;;;;;;;;6206682;28;20037;-82
2023/06/27 18:02:58;;;;;;;6.97;2.40;;;;;;;;;;6184358;28;20121;-84
2023/06/27 18:06:00;;;;;;;4.18;1.88;;;;;;;;;;6193515;28;20065;-84
2023/06/27 18:09:02;;;;;;;4.97;1.90;;;;;;;;;;6179123;28;20042;-84
2023/06/27 18:12:04;;;;;;;5.03;1.87;;;;;;;;;;6199394;28;20045;-81
2023/06/27 18:15:07;;;;;;;6.37;2.00;;;;;;;;;;6215548;28;20461;-82
2023/06/27 18:18:10;;;;;;;2.33;1.80;;;;;;;;;;6213270;28;20050;-83
2023/06/27 18:21:12;;;;;;;3.42;1.70;;;;;;;;;;6218124;28;20125;-83